createdAt,value
2023-01-03T00:00:14.622Z,73.32
2023-01-03T00:02:43.637Z,73.27
2023-01-03T00:05:12.768Z,73.72
2023-01-03T00:07:42.913Z,73.95
2023-01-03T00:10:12.589Z,74.24
2023-01-03T00:12:42.001Z,74.18
2023-01-03T00:15:08.982Z,74.00
2023-01-03T00:17:35.604Z,73.75
2023-01-03T00:20:02.683Z,74.17
2023-01-03T00:22:31.407Z,74.39
2023-01-03T00:25:00.329Z,74.51
2023-01-03T00:27:30.820Z,75.11
2023-01-03T00:30:00.011Z,75.38
2023-01-03T00:32:26.724Z,75.51
2023-01-03T00:34:53.417Z,75.62
2023-01-03T00:37:22.602Z,75.93
2023-01-03T00:39:49.171Z,76.30
2023-01-03T00:42:15.761Z,76.31
2023-01-03T00:44:42.383Z,76.20
2023-01-03T00:47:08.970Z,76.12
2023-01-03T00:49:35.652Z,75.61
2023-01-03T00:52:02.310Z,75.79
2023-01-03T00:54:29.005Z,75.52
2023-01-03T00:56:55.565Z,75.39
2023-01-03T00:59:24.611Z,75.71
2023-01-03T01:01:56.924Z,76.26
2023-01-03T01:04:24.769Z,76.07
2023-01-03T01:06:53.026Z,76.26
2023-01-03T01:09:21.769Z,76.22
2023-01-03T01:11:48.500Z,75.78
2023-01-03T01:14:21.233Z,74.73
2023-01-03T01:16:50.237Z,75.51
2023-01-03T01:19:17.451Z,75.07
2023-01-03T01:21:44.322Z,74.94
2023-01-03T01:24:15.878Z,74.53
2023-01-03T01:26:44.335Z,73.97
2023-01-03T01:29:11.854Z,74.08
2023-01-03T01:31:38.647Z,73.83
2023-01-03T01:34:05.328Z,73.70
2023-01-03T01:36:33.512Z,73.37
2023-01-03T01:39:03.519Z,73.82
2023-01-03T01:41:51.400Z,73.77
2023-01-03T01:44:39.917Z,73.99
2023-01-03T01:47:11.985Z,73.91
2023-01-03T01:49:38.622Z,74.47
2023-01-03T01:52:05.268Z,74.47
2023-01-03T01:54:31.876Z,74.71
2023-01-03T01:57:00.615Z,74.75
2023-01-03T01:59:28.464Z,75.00
2023-01-03T02:01:58.128Z,74.72
2023-01-03T02:04:29.501Z,74.55
2023-01-03T02:06:56.415Z,73.82
2023-01-03T02:09:23.115Z,73.74
2023-01-03T02:12:18.670Z,73.82
2023-01-03T02:15:08.143Z,73.48
2023-01-03T02:17:53.546Z,73.82
2023-01-03T02:20:21.812Z,73.48
2023-01-03T02:22:51.500Z,73.26
2023-01-03T02:25:21.784Z,73.12
2023-01-03T02:28:00.932Z,73.20
2023-01-03T02:30:39.997Z,73.45
2023-01-03T02:33:10.612Z,73.49
2023-01-03T02:35:56.012Z,73.38
2023-01-03T02:38:45.745Z,73.22
2023-01-03T02:41:21.771Z,73.03
2023-01-03T02:44:04.314Z,72.94
2023-01-03T02:46:33.066Z,72.28
2023-01-03T02:49:10.590Z,72.31
2023-01-03T02:51:38.375Z,73.27
2023-01-03T02:54:05.757Z,73.05
2023-01-03T02:56:40.404Z,73.59
2023-01-03T02:59:11.118Z,73.57
2023-01-03T03:01:37.898Z,73.64
2023-01-03T03:04:06.904Z,73.91
2023-01-03T03:06:39.418Z,73.69
2023-01-03T03:09:06.156Z,73.70
2023-01-03T03:11:55.099Z,73.67
2023-01-03T03:14:27.868Z,73.41
2023-01-03T03:16:54.992Z,73.50
2023-01-03T03:19:50.609Z,73.11
2023-01-03T03:22:42.290Z,73.89
2023-01-03T03:25:10.269Z,74.34
2023-01-03T03:27:58.420Z,74.48
2023-01-03T03:30:25.105Z,74.33
2023-01-03T03:32:52.253Z,74.43
2023-01-03T03:35:19.583Z,74.40
2023-01-03T03:37:52.155Z,74.88
2023-01-03T03:40:37.442Z,74.85
2023-01-03T03:43:24.614Z,74.72
2023-01-03T03:45:51.253Z,74.80
2023-01-03T03:48:20.393Z,74.14
2023-01-03T03:50:49.953Z,74.30
2023-01-03T03:53:16.711Z,74.04
2023-01-03T03:55:59.162Z,74.18
2023-01-03T03:58:34.021Z,74.49
2023-01-03T04:01:03.761Z,74.75
2023-01-03T04:03:30.480Z,74.31
2023-01-03T04:05:58.164Z,73.90
2023-01-03T04:08:24.983Z,74.33
2023-01-03T04:10:51.670Z,74.04
2023-01-03T04:13:18.248Z,73.83
2023-01-03T04:15:44.842Z,73.80
2023-01-03T04:18:11.593Z,74.45
2023-01-03T04:20:38.184Z,74.61
2023-01-03T04:23:04.785Z,74.63
2023-01-03T04:25:31.387Z,74.99
2023-01-03T04:28:03.720Z,75.07
2023-01-03T04:30:32.688Z,75.03
2023-01-03T04:32:59.305Z,75.02
2023-01-03T04:35:28.143Z,75.21
2023-01-03T04:37:54.896Z,74.63
2023-01-03T04:40:21.438Z,74.71
2023-01-03T04:43:06.913Z,74.29
2023-01-03T04:45:35.635Z,74.32
2023-01-03T04:48:05.076Z,74.62
2023-01-03T04:50:34.138Z,74.42
2023-01-03T04:53:00.821Z,74.42
2023-01-03T04:55:27.353Z,73.98
2023-01-03T04:57:53.984Z,74.06
2023-01-03T05:00:26.072Z,73.94
2023-01-03T05:02:53.123Z,74.29
2023-01-03T05:05:19.827Z,74.12
2023-01-03T05:07:46.380Z,74.19
2023-01-03T05:10:15.576Z,74.30
2023-01-03T05:12:42.260Z,74.37
2023-01-03T05:15:11.177Z,74.32
2023-01-03T05:17:37.815Z,73.97
2023-01-03T05:20:27.821Z,73.97
2023-01-03T05:23:13.127Z,73.75
2023-01-03T05:26:06.113Z,73.50
2023-01-03T05:28:32.889Z,73.65
2023-01-03T05:30:59.620Z,73.64
2023-01-03T05:33:26.446Z,73.59
2023-01-03T05:35:53.227Z,73.46
2023-01-03T05:38:24.954Z,73.52
2023-01-03T05:40:51.622Z,73.72
2023-01-03T05:43:18.228Z,73.67
2023-01-03T05:45:48.642Z,73.75
2023-01-03T05:48:15.332Z,73.84
2023-01-03T05:50:41.905Z,73.74
2023-01-03T05:53:10.638Z,73.88
2023-01-03T05:55:37.841Z,73.85
2023-01-03T05:58:07.293Z,74.11
2023-01-03T06:00:34.145Z,73.88
2023-01-03T06:03:00.899Z,73.94
2023-01-03T06:05:28.017Z,74.73
2023-01-03T06:07:58.447Z,75.47
2023-01-03T06:10:27.892Z,76.07
2023-01-03T06:12:54.882Z,76.45
2023-01-03T06:15:21.612Z,76.86
2023-01-03T06:18:02.544Z,78.17
2023-01-03T06:20:29.685Z,78.14
2023-01-03T06:22:58.779Z,78.22
2023-01-03T06:25:25.902Z,77.76
2023-01-03T06:27:55.516Z,77.47
2023-01-03T06:30:22.394Z,77.33
2023-01-03T06:32:54.483Z,77.24
2023-01-03T06:35:21.148Z,76.94
2023-01-03T06:37:47.772Z,77.22
2023-01-03T06:40:19.669Z,77.14
2023-01-03T06:42:48.041Z,76.86
2023-01-03T06:45:33.349Z,76.63
2023-01-03T06:48:22.433Z,75.84
2023-01-03T06:51:07.792Z,75.26
2023-01-03T06:53:40.572Z,74.71
2023-01-03T06:56:07.542Z,75.12
2023-01-03T06:58:36.646Z,75.03
2023-01-03T07:01:05.029Z,75.13
2023-01-03T07:03:32.309Z,74.99
2023-01-03T07:05:59.424Z,74.86
2023-01-03T07:08:28.249Z,74.68
2023-01-03T07:10:55.153Z,74.10
2023-01-03T07:13:43.516Z,73.95
2023-01-03T07:16:16.817Z,73.72
2023-01-03T07:18:55.043Z,73.40
2023-01-03T07:21:23.028Z,72.97
2023-01-03T07:23:49.750Z,72.50
2023-01-03T07:26:16.678Z,72.29
2023-01-03T07:28:43.342Z,71.99
2023-01-03T07:31:10.177Z,71.36
2023-01-03T07:33:39.566Z,71.50
2023-01-03T07:36:11.589Z,71.50
2023-01-03T07:38:39.398Z,71.19
2023-01-03T07:41:08.169Z,70.78
2023-01-03T07:43:38.190Z,70.66
2023-01-03T07:46:07.772Z,70.54
2023-01-03T07:48:34.915Z,70.74
2023-01-03T07:51:04.367Z,70.63
2023-01-03T07:53:33.943Z,70.37
2023-01-03T07:56:07.679Z,69.90
2023-01-03T07:58:37.656Z,69.84
2023-01-03T08:01:05.246Z,68.96
2023-01-03T08:03:32.009Z,70.43
2023-01-03T08:06:05.089Z,70.74
2023-01-03T08:08:34.033Z,70.04
2023-01-03T08:11:19.509Z,70.01
2023-01-03T08:13:48.737Z,69.16
2023-01-03T08:16:18.479Z,68.90
2023-01-03T08:18:45.577Z,68.87
2023-01-03T08:21:14.863Z,69.25
2023-01-03T08:23:41.565Z,70.28
2023-01-03T08:26:08.253Z,70.28
2023-01-03T08:28:37.748Z,71.24
2023-01-03T08:31:18.943Z,70.89
2023-01-03T08:33:49.731Z,70.82
2023-01-03T08:36:16.413Z,70.63
2023-01-03T08:38:44.496Z,70.26
2023-01-03T08:41:11.148Z,69.74
2023-01-03T08:43:38.284Z,69.35
2023-01-03T08:46:07.800Z,69.18
2023-01-03T08:48:34.538Z,69.26
2023-01-03T08:51:05.885Z,68.81
2023-01-03T08:53:32.564Z,68.52
2023-01-03T08:55:59.339Z,69.30
2023-01-03T08:58:31.409Z,68.82
2023-01-03T09:01:02.486Z,69.14
2023-01-03T09:03:29.351Z,69.20
2023-01-03T09:05:59.316Z,68.19
2023-01-03T09:08:28.377Z,68.07
2023-01-03T09:10:55.198Z,68.03
2023-01-03T09:13:27.329Z,68.19
2023-01-03T09:16:01.205Z,67.01
2023-01-03T09:18:27.804Z,67.30
2023-01-03T09:20:54.422Z,67.83
2023-01-03T09:23:26.525Z,67.30
2023-01-03T09:25:55.689Z,66.96
2023-01-03T09:28:22.280Z,66.89
2023-01-03T09:30:49.433Z,67.13
2023-01-03T09:33:16.139Z,66.93
2023-01-03T09:35:42.909Z,66.24
2023-01-03T09:38:14.276Z,66.53
2023-01-03T09:40:45.366Z,66.12
2023-01-03T09:43:16.480Z,66.53
2023-01-03T09:45:48.440Z,66.18
2023-01-03T09:48:21.154Z,66.39
2023-01-03T09:51:25.922Z,66.04
2023-01-03T09:54:00.824Z,64.94
2023-01-03T09:56:48.681Z,64.71
2023-01-03T09:59:35.577Z,64.04
2023-01-03T10:02:52.741Z,63.12
2023-01-03T10:05:21.627Z,62.84
2023-01-03T10:07:49.369Z,63.58
2023-01-03T10:10:22.208Z,62.70
2023-01-03T10:12:59.150Z,62.32
2023-01-03T10:15:35.625Z,62.48
2023-01-03T10:18:11.444Z,62.28
2023-01-03T10:20:50.887Z,62.44
2023-01-03T10:23:17.581Z,62.50
2023-01-03T10:25:44.779Z,62.27
2023-01-03T10:28:26.001Z,62.53
2023-01-03T10:31:08.343Z,61.96
2023-01-03T10:33:36.989Z,60.55
2023-01-03T10:36:06.178Z,62.00
2023-01-03T10:38:43.542Z,61.23
2023-01-03T10:41:16.039Z,60.99
2023-01-03T10:43:45.699Z,60.70
2023-01-03T10:46:19.388Z,60.56
2023-01-03T10:51:42.506Z,61.26
2023-01-03T10:54:18.750Z,60.54
2023-01-03T10:56:46.083Z,59.86
2023-01-03T10:59:15.457Z,58.13
2023-01-03T11:01:57.852Z,58.90
2023-01-03T11:04:27.099Z,58.73
2023-01-03T11:07:01.369Z,57.84
2023-01-03T11:09:31.430Z,57.23
2023-01-03T11:12:06.512Z,57.52
2023-01-03T11:14:33.308Z,57.07
2023-01-03T11:17:04.739Z,56.86
2023-01-03T11:19:32.941Z,55.88
2023-01-03T11:22:14.491Z,56.31
2023-01-03T11:25:03.304Z,55.44
2023-01-03T11:27:35.524Z,55.62
2023-01-03T11:30:14.625Z,55.46
2023-01-03T11:32:44.622Z,55.68
2023-01-03T11:35:24.059Z,55.45
2023-01-03T11:38:07.082Z,55.17
2023-01-03T11:41:03.159Z,55.41
2023-01-03T11:43:29.947Z,56.43
2023-01-03T11:45:58.969Z,55.52
2023-01-03T11:48:30.175Z,56.91
2023-01-03T11:51:02.929Z,57.46
2023-01-03T11:53:36.771Z,57.18
2023-01-03T11:56:08.727Z,54.92
2023-01-03T11:59:01.901Z,55.55
2023-01-03T12:01:37.076Z,55.80
2023-01-03T12:04:24.979Z,55.69
2023-01-03T12:06:51.693Z,56.02
2023-01-03T12:09:39.737Z,54.97
2023-01-03T12:12:09.525Z,55.57
2023-01-03T12:14:38.574Z,56.07
2023-01-03T12:17:09.743Z,56.07
2023-01-03T12:19:41.741Z,56.13
2023-01-03T12:22:20.776Z,56.03
2023-01-03T12:24:56.784Z,55.97
2023-01-03T12:27:36.430Z,55.79
2023-01-03T12:30:03.150Z,55.75
2023-01-03T12:32:34.997Z,56.40
2023-01-03T12:35:12.176Z,56.03
2023-01-03T12:37:40.406Z,57.22
2023-01-03T12:40:27.570Z,56.71
2023-01-03T12:43:04.779Z,57.76
2023-01-03T12:45:34.700Z,58.21
2023-01-03T12:48:07.263Z,59.23
2023-01-03T12:50:49.481Z,58.82
2023-01-03T12:53:16.083Z,58.89
2023-01-03T12:55:45.887Z,58.71
2023-01-03T12:58:15.612Z,58.67
2023-01-03T13:00:44.697Z,59.04
2023-01-03T13:03:19.234Z,58.84
2023-01-03T13:05:50.486Z,58.29
2023-01-03T13:08:29.382Z,59.13
2023-01-03T13:10:57.118Z,59.37
2023-01-03T13:13:23.751Z,58.92
2023-01-03T13:15:53.339Z,59.45
2023-01-03T13:18:25.477Z,60.04
2023-01-03T13:20:53.121Z,59.99
2023-01-03T13:23:40.071Z,60.12
2023-01-03T13:26:10.501Z,60.29
2023-01-03T13:28:37.607Z,60.94
2023-01-03T13:31:14.331Z,61.53
2023-01-03T13:34:00.107Z,61.04
2023-01-03T13:36:29.151Z,61.11
2023-01-03T13:38:56.650Z,61.02
2023-01-03T13:41:30.626Z,61.41
2023-01-03T13:44:09.609Z,61.80
2023-01-03T13:46:38.710Z,61.90
2023-01-03T13:49:06.445Z,62.04
2023-01-03T13:51:41.186Z,62.26
2023-01-03T13:54:10.901Z,62.35
2023-01-03T13:56:46.176Z,62.44
2023-01-03T13:59:18.965Z,62.49
2023-01-03T14:02:07.389Z,62.42
2023-01-03T14:04:43.417Z,62.47
2023-01-03T14:07:18.485Z,62.50
2023-01-03T14:09:47.536Z,63.08
2023-01-03T14:12:40.958Z,63.06
2023-01-03T14:15:26.087Z,63.16
2023-01-03T14:17:57.201Z,63.29
2023-01-03T14:20:30.810Z,63.62
2023-01-03T14:22:57.523Z,63.42
2023-01-03T14:25:36.669Z,63.59
2023-01-03T14:28:21.011Z,63.43
2023-01-03T14:30:59.974Z,63.66
2023-01-03T14:33:30.294Z,63.92
2023-01-03T14:36:13.797Z,63.88
2023-01-03T14:38:45.788Z,63.80
2023-01-03T14:41:41.733Z,64.15
2023-01-03T14:44:11.142Z,64.31
2023-01-03T14:46:42.145Z,64.18
2023-01-03T14:49:16.060Z,64.87
2023-01-03T14:51:42.686Z,65.48
2023-01-03T14:54:12.358Z,65.29
2023-01-03T14:56:39.001Z,65.53
2023-01-03T14:59:07.087Z,65.58
2023-01-03T15:01:33.994Z,66.07
2023-01-03T15:04:00.884Z,66.46
2023-01-03T15:06:31.705Z,66.68
2023-01-03T15:09:00.344Z,66.77
2023-01-03T15:11:28.949Z,66.75
2023-01-03T15:14:08.150Z,66.43
2023-01-03T15:16:36.934Z,66.65
2023-01-03T15:19:04.851Z,66.49
2023-01-03T15:21:37.651Z,66.52
2023-01-03T15:24:07.907Z,67.12
2023-01-03T15:26:43.039Z,67.43
2023-01-03T15:29:14.476Z,66.91
2023-01-03T15:31:53.558Z,67.25
2023-01-03T15:34:29.601Z,66.98
2023-01-03T15:37:10.254Z,67.43
2023-01-03T15:39:41.902Z,67.47
2023-01-03T15:42:44.011Z,67.26
2023-01-03T15:45:18.568Z,67.08
2023-01-03T15:47:45.568Z,67.04
2023-01-03T15:50:16.467Z,67.24
2023-01-03T15:52:43.722Z,68.20
2023-01-03T15:55:12.634Z,67.74
2023-01-03T15:57:39.619Z,67.96
2023-01-03T16:00:06.921Z,68.17
2023-01-03T16:02:38.590Z,68.37
2023-01-03T16:05:07.585Z,68.18
2023-01-03T16:07:34.223Z,68.13
2023-01-03T16:10:03.451Z,67.97
2023-01-03T16:12:34.455Z,68.23
2023-01-03T16:15:03.949Z,68.04
2023-01-03T16:17:33.028Z,68.84
2023-01-03T16:19:59.590Z,68.72
2023-01-03T16:22:35.523Z,68.73
2023-01-03T16:25:03.234Z,68.68
2023-01-03T16:27:29.848Z,68.53
2023-01-03T16:29:59.155Z,68.45
2023-01-03T16:32:28.018Z,68.82
2023-01-03T16:34:56.063Z,68.99
2023-01-03T16:37:22.656Z,68.90
2023-01-03T16:39:49.346Z,68.71
2023-01-03T16:42:16.411Z,68.95
2023-01-03T16:44:43.975Z,68.92
2023-01-03T16:47:17.557Z,68.82
2023-01-03T16:49:47.352Z,68.83
2023-01-03T16:52:14.538Z,68.95
2023-01-03T16:54:41.491Z,69.39
2023-01-03T16:57:10.076Z,69.30
2023-01-03T16:59:41.811Z,69.02
2023-01-03T17:02:11.580Z,68.71
2023-01-03T17:04:38.423Z,68.57
2023-01-03T17:07:05.123Z,68.15
2023-01-03T17:09:32.312Z,67.96
2023-01-03T17:11:59.068Z,68.56
2023-01-03T17:14:26.371Z,68.64
2023-01-03T17:16:53.043Z,69.05
2023-01-03T17:20:01.965Z,69.00
2023-01-03T17:22:15.040Z,68.84
2023-01-03T17:24:44.278Z,68.73
2023-01-03T17:27:25.024Z,68.91
2023-01-03T17:29:59.099Z,68.63
2023-01-03T17:32:29.015Z,68.54
2023-01-03T17:34:58.073Z,68.69
2023-01-03T17:37:26.876Z,68.53
2023-01-03T17:39:56.989Z,68.54
2023-01-03T17:42:26.700Z,68.53
2023-01-03T17:45:14.024Z,68.50
2023-01-03T17:47:59.995Z,68.64
2023-01-03T17:50:27.047Z,68.77
2023-01-03T17:52:56.593Z,69.07
2023-01-03T17:55:27.463Z,69.24
2023-01-03T17:57:54.612Z,69.24
2023-01-03T18:00:24.811Z,69.57
2023-01-03T18:02:55.138Z,69.33
2023-01-03T18:05:27.342Z,69.12
2023-01-03T18:07:58.785Z,69.22
2023-01-03T18:10:37.424Z,69.30
2023-01-03T18:13:14.795Z,69.46
2023-01-03T18:15:41.479Z,69.72
2023-01-03T18:18:09.886Z,69.76
2023-01-03T18:20:39.614Z,69.73
2023-01-03T18:23:12.253Z,70.00
2023-01-03T18:25:38.946Z,69.86
2023-01-03T18:28:08.610Z,70.35
2023-01-03T18:30:35.462Z,70.24
2023-01-03T18:33:02.162Z,70.21
2023-01-03T18:35:37.529Z,70.06
2023-01-03T18:38:04.989Z,69.91
2023-01-03T18:40:31.632Z,69.81
2023-01-03T18:43:08.275Z,69.90
2023-01-03T18:45:38.315Z,69.93
2023-01-03T18:48:05.227Z,69.80
2023-01-03T18:50:32.040Z,69.72
2023-01-03T18:53:04.365Z,70.41
2023-01-03T18:55:32.837Z,70.48
2023-01-03T18:58:14.606Z,70.16
2023-01-03T19:00:48.793Z,69.87
2023-01-03T19:03:20.486Z,69.97
2023-01-03T19:05:47.597Z,69.93
2023-01-03T19:08:17.137Z,70.12
2023-01-03T19:10:44.016Z,69.98
2023-01-03T19:13:15.527Z,69.57
2023-01-03T19:15:42.255Z,69.63
2023-01-03T19:18:11.361Z,69.61
2023-01-03T19:20:37.961Z,69.41
2023-01-03T19:23:04.692Z,69.54
2023-01-03T19:25:34.157Z,69.50
2023-01-03T19:28:01.786Z,69.48
2023-01-03T19:30:46.630Z,69.38
2023-01-03T19:33:14.413Z,69.09
2023-01-03T19:35:41.301Z,68.99
2023-01-03T19:38:09.601Z,68.96
2023-01-03T19:40:36.586Z,69.08
2023-01-03T19:43:05.796Z,69.13
2023-01-03T19:45:39.436Z,69.19
2023-01-03T19:48:15.268Z,69.18
2023-01-03T19:50:41.874Z,69.08
2023-01-03T19:53:08.488Z,68.76
2023-01-03T19:55:35.600Z,68.81
2023-01-03T19:58:03.621Z,68.62
2023-01-03T20:00:32.318Z,67.81
2023-01-03T20:03:01.000Z,68.31
2023-01-03T20:05:35.342Z,68.24
2023-01-03T20:08:11.933Z,68.61
2023-01-03T20:10:39.871Z,68.96
2023-01-03T20:13:06.678Z,69.12
2023-01-03T20:15:33.972Z,69.03
2023-01-03T20:18:00.718Z,68.83
2023-01-03T20:20:30.840Z,69.20
2023-01-03T20:23:08.558Z,69.30
2023-01-03T20:25:37.552Z,69.39
2023-01-03T20:28:06.557Z,69.00
2023-01-03T20:30:39.285Z,69.23
2023-01-03T20:33:08.811Z,69.20
2023-01-03T20:38:27.660Z,69.17
2023-01-03T20:40:54.741Z,68.75
2023-01-03T20:43:21.479Z,68.63
2023-01-03T20:45:49.588Z,68.91
2023-01-03T20:48:22.730Z,69.17
2023-01-03T20:50:52.001Z,69.17
2023-01-03T20:53:23.101Z,68.95
2023-01-03T20:55:50.044Z,69.53
2023-01-03T20:58:20.207Z,69.92
2023-01-03T21:00:47.507Z,69.83
2023-01-03T21:03:16.681Z,69.70
2023-01-03T21:05:43.436Z,69.43
2023-01-03T21:08:33.288Z,68.97
2023-01-03T21:10:59.937Z,68.45
2023-01-03T21:13:26.703Z,68.15
2023-01-03T21:15:55.849Z,67.37
2023-01-03T21:18:22.564Z,66.35
2023-01-03T21:20:51.645Z,67.75
2023-01-03T21:23:23.222Z,68.17
2023-01-03T21:25:52.355Z,68.08
2023-01-03T21:28:18.924Z,67.89
2023-01-03T21:30:47.957Z,67.73
2023-01-03T21:33:16.284Z,67.88
2023-01-03T21:35:43.285Z,67.70
2023-01-03T21:38:12.574Z,67.50
2023-01-03T21:40:42.016Z,67.57
2023-01-03T21:43:10.715Z,67.55
2023-01-03T21:45:43.941Z,67.34
2023-01-03T21:48:14.361Z,67.53
2023-01-03T21:50:46.965Z,66.49
2023-01-03T21:53:14.470Z,66.56
2023-01-03T21:55:41.266Z,66.68
2023-01-03T21:58:14.107Z,66.29
2023-01-03T22:00:41.060Z,66.13
2023-01-03T22:03:28.969Z,66.27
2023-01-03T22:06:04.604Z,66.27
2023-01-03T22:08:31.321Z,65.93
2023-01-03T22:10:57.928Z,66.11
2023-01-03T22:13:27.718Z,65.34
2023-01-03T22:15:56.737Z,64.28
2023-01-03T22:18:23.310Z,65.12
2023-01-03T22:20:52.273Z,65.48
2023-01-03T22:23:20.007Z,64.45
2023-01-03T22:25:49.055Z,65.31
2023-01-03T22:28:15.923Z,63.63
2023-01-03T22:30:42.890Z,61.81
2023-01-03T22:33:09.548Z,59.67
2023-01-03T22:35:36.862Z,59.39
2023-01-03T22:38:03.539Z,58.50
2023-01-03T22:40:32.752Z,59.66
2023-01-03T22:43:04.462Z,58.96
2023-01-03T22:45:31.107Z,59.56
2023-01-03T22:48:02.926Z,59.12
2023-01-03T22:50:29.501Z,60.27
2023-01-03T22:52:58.924Z,60.00
2023-01-03T22:55:31.792Z,59.05
2023-01-03T22:58:01.461Z,59.39
2023-01-03T23:00:28.260Z,59.33
2023-01-03T23:02:54.905Z,59.40
2023-01-03T23:05:21.688Z,59.28
2023-01-03T23:07:50.756Z,58.73
2023-01-03T23:10:17.460Z,59.66
2023-01-03T23:12:58.846Z,59.07
2023-01-03T23:15:26.007Z,59.79
2023-01-03T23:17:58.852Z,59.34
2023-01-03T23:20:29.389Z,59.41
2023-01-03T23:22:59.936Z,59.45
2023-01-03T23:25:26.841Z,60.03
2023-01-03T23:27:53.509Z,60.78
2023-01-03T23:30:20.194Z,60.51
2023-01-03T23:32:46.882Z,61.21
2023-01-03T23:35:18.815Z,60.98
2023-01-03T23:37:47.303Z,61.21
2023-01-03T23:40:14.117Z,61.55
2023-01-03T23:42:43.309Z,61.46
2023-01-03T23:45:10.332Z,61.31
2023-01-03T23:47:39.448Z,61.80
2023-01-03T23:50:08.670Z,61.96
2023-01-03T23:52:37.625Z,61.24
2023-01-03T23:55:12.669Z,60.94
2023-01-03T23:57:44.383Z,61.37
